createdAt,value
2022-09-27T00:01:03.891Z,13.85
2022-09-27T00:03:32.980Z,13.52
2022-09-27T00:06:07.563Z,13.39
2022-09-27T00:08:37.355Z,13.58
2022-09-27T00:11:10.109Z,13.53
2022-09-27T00:13:38.402Z,13.61
2022-09-27T00:16:06.861Z,13.76
2022-09-27T00:18:35.784Z,13.85
2022-09-27T00:21:09.673Z,13.81
2022-09-27T00:23:38.971Z,13.87
2022-09-27T00:26:12.954Z,13.91
2022-09-27T00:28:41.301Z,13.86
2022-09-27T00:31:21.345Z,13.92
2022-09-27T00:33:50.766Z,13.96
2022-09-27T00:36:20.517Z,14.07
2022-09-27T00:38:49.563Z,14.01
2022-09-27T00:41:23.145Z,14.18
2022-09-27T00:43:55.131Z,13.56
2022-09-27T00:46:31.119Z,14.18
2022-09-27T00:49:08.309Z,14.04
2022-09-27T00:51:38.998Z,13.89
2022-09-27T00:54:09.173Z,13.69
2022-09-27T00:56:39.101Z,13.72
2022-09-27T00:59:14.361Z,13.92
2022-09-27T01:01:43.213Z,14.06
2022-09-27T01:04:14.667Z,13.92
2022-09-27T01:06:42.885Z,13.74
2022-09-27T01:09:13.178Z,13.46
2022-09-27T01:11:47.486Z,13.30
2022-09-27T01:14:38.808Z,13.22
2022-09-27T01:17:25.647Z,13.30
2022-09-27T01:20:36.458Z,13.30
2022-09-27T01:23:48.274Z,13.34
2022-09-27T01:26:33.196Z,13.47
2022-09-27T01:29:11.464Z,13.10
2022-09-27T01:31:50.718Z,13.51
2022-09-27T01:34:27.860Z,13.28
2022-09-27T01:37:03.052Z,13.48
2022-09-27T01:39:41.284Z,13.62
2022-09-27T01:42:34.843Z,13.64
2022-09-27T01:45:10.662Z,13.80
2022-09-27T01:47:55.080Z,13.96
2022-09-27T01:50:47.109Z,13.95
2022-09-27T01:53:22.074Z,13.90
2022-09-27T01:56:13.059Z,13.91
2022-09-27T01:58:57.409Z,14.04
2022-09-27T02:01:30.395Z,13.90
2022-09-27T02:04:02.696Z,13.84
2022-09-27T02:06:59.423Z,13.87
2022-09-27T02:09:37.943Z,13.91
2022-09-27T02:12:28.452Z,13.77
2022-09-27T02:15:01.990Z,13.71
2022-09-27T02:17:43.019Z,13.76
2022-09-27T02:20:19.847Z,13.41
2022-09-27T02:23:04.587Z,13.48
2022-09-27T02:25:41.816Z,13.46
2022-09-27T02:28:21.810Z,13.42
2022-09-27T02:30:50.609Z,13.38
2022-09-27T02:33:31.696Z,13.22
2022-09-27T02:36:03.480Z,13.48
2022-09-27T02:38:32.025Z,13.49
2022-09-27T02:41:01.809Z,13.51
2022-09-27T02:43:33.246Z,13.26
2022-09-27T02:46:34.929Z,13.46
2022-09-27T02:49:21.421Z,13.51
2022-09-27T02:52:19.167Z,13.55
2022-09-27T02:54:59.955Z,13.55
2022-09-27T02:58:04.336Z,13.57
2022-09-27T03:01:03.286Z,13.64
2022-09-27T03:03:57.201Z,13.62
2022-09-27T03:06:26.347Z,13.50
2022-09-27T03:08:56.875Z,13.42
2022-09-27T03:11:25.740Z,13.47
2022-09-27T03:14:08.267Z,13.51
2022-09-27T03:16:41.962Z,13.54
2022-09-27T03:19:32.906Z,13.54
2022-09-27T03:22:21.687Z,13.50
2022-09-27T03:24:51.502Z,13.46
2022-09-27T03:27:19.823Z,13.20
2022-09-27T03:29:47.999Z,13.18
2022-09-27T03:32:17.627Z,12.25
2022-09-27T03:35:09.211Z,12.85
2022-09-27T03:37:37.915Z,12.88
2022-09-27T03:40:09.365Z,12.73
2022-09-27T03:42:37.762Z,13.14
2022-09-27T03:45:07.647Z,13.37
2022-09-27T03:47:35.978Z,13.46
2022-09-27T03:50:04.368Z,13.29
2022-09-27T03:52:32.583Z,13.21
2022-09-27T03:55:02.398Z,13.29
2022-09-27T03:57:33.026Z,13.38
2022-09-27T04:00:01.715Z,13.36
2022-09-27T04:02:42.168Z,13.58
2022-09-27T04:05:26.106Z,13.64
2022-09-27T04:08:06.264Z,13.73
2022-09-27T04:10:36.797Z,13.45
2022-09-27T04:13:07.710Z,13.61
2022-09-27T04:15:42.312Z,13.46
2022-09-27T04:18:25.827Z,13.36
2022-09-27T04:21:09.700Z,13.58
2022-09-27T04:23:43.246Z,13.62
2022-09-27T04:26:15.455Z,13.58
2022-09-27T04:28:54.686Z,13.52
2022-09-27T04:31:23.261Z,13.59
2022-09-27T04:34:09.934Z,13.66
2022-09-27T04:36:38.058Z,13.65
2022-09-27T04:39:12.101Z,13.60
2022-09-27T04:41:45.488Z,13.35
2022-09-27T04:44:15.847Z,13.38
2022-09-27T04:46:48.089Z,12.93
2022-09-27T04:49:17.785Z,12.59
2022-09-27T04:51:46.905Z,12.45
2022-09-27T04:54:16.132Z,12.64
2022-09-27T04:56:56.383Z,12.73
2022-09-27T04:59:26.054Z,12.75
2022-09-27T05:01:54.303Z,12.80
2022-09-27T05:04:43.025Z,12.87
2022-09-27T05:07:12.438Z,13.00
2022-09-27T05:09:46.843Z,13.07
2022-09-27T05:12:15.092Z,13.15
2022-09-27T05:14:56.614Z,13.28
2022-09-27T05:17:45.548Z,13.40
2022-09-27T05:20:20.042Z,13.47
2022-09-27T05:23:04.694Z,13.52
2022-09-27T05:25:34.139Z,13.59
2022-09-27T05:28:02.905Z,13.08
2022-09-27T05:30:33.138Z,13.61
2022-09-27T05:33:13.439Z,13.62
2022-09-27T05:35:54.407Z,13.68
2022-09-27T05:38:26.257Z,13.69
2022-09-27T05:40:58.022Z,13.47
2022-09-27T05:43:28.325Z,13.59
2022-09-27T05:46:00.777Z,13.68
2022-09-27T05:48:30.263Z,13.79
2022-09-27T05:51:06.248Z,13.79
2022-09-27T05:53:37.830Z,13.77
2022-09-27T05:56:09.290Z,13.81
2022-09-27T05:58:58.557Z,13.80
2022-09-27T06:01:31.158Z,13.87
2022-09-27T06:04:17.935Z,13.96
2022-09-27T06:07:15.047Z,13.80
2022-09-27T06:09:44.288Z,13.91
2022-09-27T06:12:13.085Z,13.79
2022-09-27T06:14:41.470Z,13.68
2022-09-27T06:17:16.366Z,13.68
2022-09-27T06:19:47.688Z,13.68
2022-09-27T06:22:16.737Z,13.74
2022-09-27T06:24:56.469Z,13.64
2022-09-27T06:27:27.776Z,13.72
2022-09-27T06:30:00.954Z,13.70
2022-09-27T06:32:42.969Z,13.73
2022-09-27T06:35:31.134Z,13.71
2022-09-27T06:37:59.601Z,13.76
2022-09-27T06:40:28.208Z,13.57
2022-09-27T06:43:19.770Z,13.66
2022-09-27T06:46:07.172Z,13.48
2022-09-27T06:48:56.579Z,13.54
2022-09-27T06:51:24.759Z,13.36
2022-09-27T06:53:53.198Z,13.30
2022-09-27T06:56:21.936Z,13.11
2022-09-27T06:59:24.434Z,13.05
2022-09-27T07:02:11.761Z,13.23
2022-09-27T07:05:03.576Z,13.53
2022-09-27T07:07:44.093Z,13.30
2022-09-27T07:10:13.229Z,13.51
2022-09-27T07:12:41.581Z,13.47
2022-09-27T07:15:12.622Z,13.23
2022-09-27T07:17:41.058Z,13.47
2022-09-27T07:20:11.731Z,13.61
2022-09-27T07:22:42.967Z,13.53
2022-09-27T07:25:12.028Z,13.68
2022-09-27T07:27:42.013Z,13.74
2022-09-27T07:30:13.185Z,13.74
2022-09-27T07:32:42.339Z,13.90
2022-09-27T07:35:15.538Z,13.99
2022-09-27T07:37:45.427Z,13.65
2022-09-27T07:40:15.167Z,14.12
2022-09-27T07:42:43.959Z,14.16
2022-09-27T07:45:13.109Z,14.25
2022-09-27T07:48:01.573Z,14.29
2022-09-27T07:50:49.680Z,14.18
2022-09-27T07:53:41.129Z,14.01
2022-09-27T07:56:27.921Z,14.02
2022-09-27T07:58:57.343Z,13.80
2022-09-27T08:01:25.893Z,13.83
2022-09-27T08:03:54.240Z,13.81
2022-09-27T08:06:25.156Z,13.91
2022-09-27T08:08:54.855Z,13.94
2022-09-27T08:11:23.133Z,13.82
2022-09-27T08:13:53.048Z,13.94
2022-09-27T08:16:25.643Z,13.97
2022-09-27T08:19:15.073Z,13.94
2022-09-27T08:22:03.913Z,13.87
2022-09-27T08:24:55.020Z,13.93
2022-09-27T08:27:41.344Z,13.85
2022-09-27T08:30:21.352Z,13.88
2022-09-27T08:32:49.599Z,13.87
2022-09-27T08:35:17.824Z,13.69
2022-09-27T08:37:55.398Z,13.48
2022-09-27T08:40:27.726Z,13.69
2022-09-27T08:43:07.215Z,13.65
2022-09-27T08:45:42.883Z,13.76
2022-09-27T08:48:12.561Z,13.77
2022-09-27T08:50:45.940Z,13.45
2022-09-27T08:53:24.898Z,13.63
2022-09-27T08:55:57.051Z,13.52
2022-09-27T08:58:31.296Z,13.53
2022-09-27T09:01:04.341Z,13.65
2022-09-27T09:03:45.069Z,13.74
2022-09-27T09:06:21.004Z,13.83
2022-09-27T09:09:05.251Z,13.74
2022-09-27T09:12:07.802Z,13.93
2022-09-27T09:15:04.714Z,13.99
2022-09-27T09:17:56.153Z,14.17
2022-09-27T09:20:53.721Z,13.89
2022-09-27T09:23:39.323Z,13.78
2022-09-27T09:26:15.456Z,13.74
2022-09-27T09:29:06.203Z,13.56
2022-09-27T09:31:43.896Z,13.73
2022-09-27T09:34:21.899Z,13.50
2022-09-27T09:36:57.736Z,13.28
2022-09-27T09:39:31.715Z,13.29
2022-09-27T09:42:12.665Z,13.17
2022-09-27T09:44:49.177Z,13.26
2022-09-27T09:47:29.576Z,13.27
2022-09-27T09:50:02.766Z,13.32
2022-09-27T09:52:41.230Z,13.23
2022-09-27T09:55:21.573Z,13.31
2022-09-27T09:58:08.187Z,13.43
2022-09-27T10:00:45.636Z,13.42
2022-09-27T10:03:13.999Z,13.46
2022-09-27T10:05:45.560Z,13.49
2022-09-27T10:08:22.083Z,13.40
2022-09-27T10:10:58.555Z,12.99
2022-09-27T10:13:37.921Z,13.13
2022-09-27T10:16:11.555Z,12.77
2022-09-27T10:18:47.624Z,12.87
2022-09-27T10:21:23.843Z,12.74
2022-09-27T10:24:16.603Z,12.34
2022-09-27T10:27:15.211Z,12.12
2022-09-27T10:29:44.939Z,11.88
2022-09-27T10:32:27.181Z,11.70
2022-09-27T10:35:35.326Z,11.51
2022-09-27T10:38:24.943Z,11.11
2022-09-27T10:41:16.704Z,11.38
2022-09-27T10:43:45.332Z,11.42
2022-09-27T10:46:29.780Z,11.44
2022-09-27T10:49:19.616Z,11.39
2022-09-27T10:51:54.118Z,11.52
2022-09-27T10:54:27.680Z,11.51
2022-09-27T10:57:04.643Z,11.65
2022-09-27T10:59:37.272Z,11.87
2022-09-27T11:02:07.928Z,12.02
2022-09-27T11:04:40.400Z,12.21
2022-09-27T11:07:20.326Z,12.04
2022-09-27T11:10:03.849Z,11.86
2022-09-27T11:12:36.711Z,11.92
2022-09-27T11:15:08.719Z,11.95
2022-09-27T11:17:53.136Z,12.33
2022-09-27T11:20:33.692Z,12.10
2022-09-27T11:23:40.338Z,12.22
2022-09-27T11:26:29.913Z,12.81
2022-09-27T11:29:12.892Z,12.90
2022-09-27T11:32:20.354Z,13.14
2022-09-27T11:35:21.728Z,13.31
2022-09-27T11:38:04.164Z,12.96
2022-09-27T11:41:03.255Z,13.41
2022-09-27T11:43:52.494Z,13.65
2022-09-27T11:46:38.685Z,13.60
2022-09-27T11:49:47.685Z,13.83
2022-09-27T11:52:46.550Z,14.00
2022-09-27T11:55:31.268Z,13.98
2022-09-27T11:58:06.224Z,14.06
2022-09-27T12:00:53.370Z,14.42
2022-09-27T12:04:18.234Z,14.56
2022-09-27T12:06:56.201Z,14.48
2022-09-27T12:09:31.699Z,14.73
2022-09-27T12:12:06.146Z,14.95
2022-09-27T12:14:38.789Z,15.32
2022-09-27T12:17:13.474Z,15.64
2022-09-27T12:19:51.648Z,15.86
2022-09-27T12:22:53.885Z,15.93
2022-09-27T12:25:21.203Z,15.78
2022-09-27T12:28:24.613Z,15.36
2022-09-27T12:31:27.439Z,15.31
2022-09-27T12:34:01.802Z,15.16
2022-09-27T12:36:38.458Z,15.01
2022-09-27T12:39:18.790Z,15.26
2022-09-27T12:42:01.912Z,15.26
2022-09-27T12:44:45.916Z,14.93
2022-09-27T12:47:53.916Z,14.80
2022-09-27T12:50:31.602Z,14.70
2022-09-27T12:53:06.586Z,14.66
2022-09-27T12:56:09.309Z,14.76
2022-09-27T12:59:07.559Z,14.55
2022-09-27T13:01:56.202Z,14.86
2022-09-27T13:04:47.764Z,14.93
2022-09-27T13:07:36.191Z,14.70
2022-09-27T13:10:34.144Z,14.48
2022-09-27T13:13:12.954Z,14.64
2022-09-27T13:15:46.425Z,14.61
2022-09-27T13:18:48.833Z,14.48
2022-09-27T13:22:01.671Z,14.39
2022-09-27T13:24:48.784Z,14.39
2022-09-27T13:27:45.066Z,14.54
2022-09-27T13:30:47.419Z,14.58
2022-09-27T13:33:50.332Z,14.50
2022-09-27T13:36:34.213Z,14.40
2022-09-27T13:39:23.138Z,14.45
2022-09-27T13:42:37.321Z,14.54
2022-09-27T13:45:28.894Z,14.65
2022-09-27T13:48:00.398Z,14.70
2022-09-27T13:50:47.628Z,14.81
2022-09-27T13:53:27.868Z,14.81
2022-09-27T13:55:59.217Z,14.65
2022-09-27T13:58:51.347Z,14.73
2022-09-27T14:01:43.848Z,14.18
2022-09-27T14:04:19.776Z,14.70
2022-09-27T14:06:52.454Z,14.68
2022-09-27T14:09:26.653Z,14.82
2022-09-27T14:12:12.359Z,14.94
2022-09-27T14:14:43.873Z,15.01
2022-09-27T14:17:12.780Z,15.07
2022-09-27T14:19:44.945Z,15.20
2022-09-27T14:22:15.723Z,14.99
2022-09-27T14:24:56.891Z,15.11
2022-09-27T14:27:39.276Z,14.85
2022-09-27T14:30:27.749Z,14.83
2022-09-27T14:33:05.350Z,14.90
2022-09-27T14:36:08.152Z,14.87
2022-09-27T14:38:38.994Z,14.98
2022-09-27T14:41:17.696Z,15.05
2022-09-27T14:43:50.563Z,15.10
2022-09-27T14:46:28.207Z,15.07
2022-09-27T14:48:57.291Z,15.17
2022-09-27T14:51:31.217Z,15.19
2022-09-27T14:54:04.314Z,15.24
2022-09-27T14:56:37.258Z,15.28
2022-09-27T14:59:17.818Z,15.28
2022-09-27T15:01:51.417Z,15.29
2022-09-27T15:04:21.770Z,15.33
2022-09-27T15:06:50.674Z,15.31
2022-09-27T15:09:19.633Z,15.36
2022-09-27T15:11:54.959Z,15.38
2022-09-27T15:14:26.016Z,15.39
2022-09-27T15:16:56.887Z,15.45
2022-09-27T15:19:29.001Z,15.44
2022-09-27T15:21:58.285Z,14.98
2022-09-27T15:24:41.027Z,15.20
2022-09-27T15:27:18.092Z,15.27
2022-09-27T15:29:52.299Z,15.32
2022-09-27T15:32:23.902Z,15.30
2022-09-27T15:34:52.660Z,15.23
2022-09-27T15:37:29.747Z,15.13
2022-09-27T15:40:10.115Z,15.32
2022-09-27T15:42:56.306Z,15.33
2022-09-27T15:45:31.344Z,15.32
2022-09-27T15:48:09.273Z,15.28
2022-09-27T15:50:41.088Z,15.36
2022-09-27T15:53:10.817Z,15.42
2022-09-27T15:55:43.411Z,14.94
2022-09-27T15:58:16.935Z,14.85
2022-09-27T16:00:57.908Z,14.78
2022-09-27T16:03:27.890Z,14.41
2022-09-27T16:05:58.044Z,14.63
2022-09-27T16:08:27.410Z,14.70
2022-09-27T16:10:57.880Z,14.49
2022-09-27T16:13:31.842Z,14.58
2022-09-27T16:16:04.202Z,14.51
2022-09-27T16:18:32.900Z,14.17
2022-09-27T16:21:01.452Z,14.27
2022-09-27T16:23:29.798Z,14.24
2022-09-27T16:25:58.119Z,14.31
2022-09-27T16:28:26.522Z,14.25
2022-09-27T16:30:54.809Z,14.39
2022-09-27T16:33:24.807Z,14.29
2022-09-27T16:35:53.018Z,14.30
2022-09-27T16:38:21.365Z,14.37
2022-09-27T16:40:49.645Z,14.36
2022-09-27T16:43:18.631Z,14.23
2022-09-27T16:45:46.937Z,14.44
2022-09-27T16:48:15.317Z,14.64
2022-09-27T16:51:02.267Z,14.73
2022-09-27T16:53:31.222Z,14.85
2022-09-27T16:56:00.670Z,14.85
2022-09-27T16:58:30.819Z,14.81
2022-09-27T17:01:00.068Z,14.84
2022-09-27T17:03:28.637Z,14.98
2022-09-27T17:06:02.624Z,15.00
2022-09-27T17:08:30.933Z,14.99
2022-09-27T17:11:00.218Z,15.04
2022-09-27T17:13:28.774Z,14.99
2022-09-27T17:15:57.118Z,15.18
2022-09-27T17:18:25.591Z,15.19
2022-09-27T17:20:53.988Z,15.21
2022-09-27T17:23:23.600Z,15.15
2022-09-27T17:25:52.191Z,15.21
2022-09-27T17:28:20.505Z,15.24
2022-09-27T17:30:48.850Z,15.23
2022-09-27T17:33:17.115Z,15.03
2022-09-27T17:35:47.857Z,14.81
2022-09-27T17:38:16.114Z,14.76
2022-09-27T17:40:46.134Z,14.52
2022-09-27T17:43:15.767Z,14.38
2022-09-27T17:45:44.094Z,14.31
2022-09-27T17:48:29.721Z,14.26
2022-09-27T17:50:58.249Z,14.20
2022-09-27T17:53:26.577Z,14.06
2022-09-27T17:56:02.461Z,13.87
2022-09-27T17:58:31.077Z,13.94
2022-09-27T18:01:04.343Z,13.98
2022-09-27T18:03:32.831Z,13.75
2022-09-27T18:06:06.070Z,14.01
2022-09-27T18:08:34.452Z,13.99
2022-09-27T18:11:09.245Z,13.96
2022-09-27T18:13:40.565Z,13.98
2022-09-27T18:16:11.297Z,13.95
2022-09-27T18:18:40.957Z,13.97
2022-09-27T18:21:11.597Z,13.92
2022-09-27T18:23:40.741Z,13.88
2022-09-27T18:26:11.440Z,13.75
2022-09-27T18:28:40.764Z,13.45
2022-09-27T18:31:11.484Z,12.77
2022-09-27T18:33:40.229Z,12.56
2022-09-27T18:36:13.178Z,12.65
2022-09-27T18:38:41.970Z,12.74
2022-09-27T18:41:14.168Z,12.63
2022-09-27T18:43:44.225Z,12.51
2022-09-27T18:46:34.933Z,12.39
2022-09-27T18:49:05.092Z,12.36
2022-09-27T18:51:36.194Z,12.14
2022-09-27T18:54:08.183Z,11.65
2022-09-27T18:56:39.542Z,11.71
2022-09-27T18:59:10.201Z,11.67
2022-09-27T19:01:40.359Z,11.65
2022-09-27T19:04:09.823Z,11.60
2022-09-27T19:06:39.417Z,11.57
2022-09-27T19:09:10.914Z,11.54
2022-09-27T19:11:40.608Z,11.55
2022-09-27T19:14:08.883Z,11.61
2022-09-27T19:16:37.245Z,11.58
2022-09-27T19:19:05.497Z,11.83
2022-09-27T19:21:33.801Z,11.92
2022-09-27T19:24:02.682Z,12.21
2022-09-27T19:26:31.061Z,11.77
2022-09-27T19:29:02.276Z,12.40
2022-09-27T19:31:34.058Z,12.54
2022-09-27T19:34:02.471Z,12.24
2022-09-27T19:36:30.903Z,12.70
2022-09-27T19:39:00.031Z,12.75
2022-09-27T19:41:28.634Z,12.78
2022-09-27T19:44:00.209Z,12.83
2022-09-27T19:46:28.584Z,12.92
2022-09-27T19:48:56.988Z,12.88
2022-09-27T19:51:28.152Z,12.92
2022-09-27T19:53:56.895Z,12.88
2022-09-27T19:56:26.129Z,12.90
2022-09-27T19:58:54.575Z,13.05
2022-09-27T20:01:26.116Z,13.13
2022-09-27T20:03:56.811Z,13.16
2022-09-27T20:06:25.382Z,13.13
2022-09-27T20:08:53.766Z,13.03
2022-09-27T20:11:23.927Z,13.11
2022-09-27T20:13:54.004Z,13.19
2022-09-27T20:16:25.390Z,12.93
2022-09-27T20:18:56.145Z,13.23
2022-09-27T20:21:27.345Z,13.04
2022-09-27T20:23:57.954Z,13.16
2022-09-27T20:26:29.352Z,13.14
2022-09-27T20:28:59.637Z,13.13
2022-09-27T20:31:32.865Z,13.11
2022-09-27T20:34:01.490Z,12.98
2022-09-27T20:36:32.292Z,12.86
2022-09-27T20:39:03.543Z,12.65
2022-09-27T20:41:34.415Z,12.73
2022-09-27T20:44:04.151Z,12.82
2022-09-27T20:46:35.043Z,12.25
2022-09-27T20:49:06.980Z,12.33
2022-09-27T20:51:38.798Z,12.31
2022-09-27T20:54:09.359Z,12.19
2022-09-27T20:56:41.673Z,12.43
2022-09-27T20:59:17.616Z,12.43
2022-09-27T21:01:49.363Z,12.27
2022-09-27T21:04:19.695Z,12.49
2022-09-27T21:06:48.245Z,12.55
2022-09-27T21:09:18.915Z,12.62
2022-09-27T21:11:48.389Z,12.48
2022-09-27T21:14:16.808Z,12.66
2022-09-27T21:16:45.212Z,12.85
2022-09-27T21:19:15.436Z,12.81
2022-09-27T21:21:43.922Z,12.77
2022-09-27T21:24:12.811Z,12.73
2022-09-27T21:26:41.084Z,12.62
2022-09-27T21:29:11.629Z,12.43
2022-09-27T21:31:40.082Z,12.28
2022-09-27T21:34:08.871Z,12.19
2022-09-27T21:36:40.298Z,11.71
2022-09-27T21:39:10.520Z,12.07
2022-09-27T21:41:39.838Z,12.02
2022-09-27T21:44:08.768Z,12.06
2022-09-27T21:46:41.590Z,12.11
2022-09-27T21:49:11.035Z,12.15
2022-09-27T21:51:42.240Z,12.23
2022-09-27T21:54:15.281Z,12.22
2022-09-27T21:56:44.908Z,12.17
2022-09-27T21:59:16.047Z,11.84
2022-09-27T22:01:46.028Z,12.06
2022-09-27T22:04:14.586Z,12.22
2022-09-27T22:06:44.489Z,12.25
2022-09-27T22:09:17.103Z,12.42
2022-09-27T22:11:47.352Z,12.45
2022-09-27T22:14:16.647Z,12.43
2022-09-27T22:16:44.921Z,12.63
2022-09-27T22:19:15.312Z,12.39
2022-09-27T22:21:45.464Z,12.61
2022-09-27T22:24:15.575Z,12.68
2022-09-27T22:26:49.057Z,12.53
2022-09-27T22:29:18.053Z,12.65
2022-09-27T22:31:46.696Z,12.68
2022-09-27T22:34:18.794Z,12.77
2022-09-27T22:36:48.628Z,12.78
2022-09-27T22:39:16.994Z,12.75
2022-09-27T22:41:45.412Z,12.72
2022-09-27T22:44:13.770Z,12.62
2022-09-27T22:46:42.497Z,12.65
2022-09-27T22:49:10.863Z,12.61
2022-09-27T22:51:39.105Z,12.53
2022-09-27T22:54:08.954Z,12.52
2022-09-27T22:56:37.245Z,12.37
2022-09-27T22:59:05.579Z,12.46
2022-09-27T23:01:36.719Z,12.37
2022-09-27T23:04:05.012Z,12.54
2022-09-27T23:06:33.429Z,12.54
2022-09-27T23:09:02.690Z,12.54
2022-09-27T23:11:33.126Z,12.58
2022-09-27T23:14:01.416Z,12.57
2022-09-27T23:16:29.746Z,12.45
2022-09-27T23:18:58.478Z,12.53
2022-09-27T23:21:28.652Z,12.58
2022-09-27T23:23:59.627Z,12.64
2022-09-27T23:26:31.018Z,12.53
2022-09-27T23:29:00.951Z,12.66
2022-09-27T23:31:31.387Z,12.51
2022-09-27T23:34:04.133Z,12.63
2022-09-27T23:36:32.476Z,12.63
2022-09-27T23:39:01.705Z,12.20
2022-09-27T23:41:31.373Z,12.58
2022-09-27T23:43:59.547Z,12.57
2022-09-27T23:46:28.947Z,12.59
2022-09-27T23:48:58.872Z,12.55
2022-09-27T23:51:27.357Z,12.58
2022-09-27T23:53:57.087Z,12.61
2022-09-27T23:56:25.527Z,12.58
2022-09-27T23:58:55.122Z,12.55
